createdAt,value
2019-03-10T00:01:58.713Z,99236.39
2019-03-10T00:04:26.157Z,99243.99
2019-03-10T00:06:53.614Z,99238.31
2019-03-10T00:09:21.077Z,99249.87
2019-03-10T00:11:48.535Z,99252.75
2019-03-10T00:14:16.095Z,99244.95
2019-03-10T00:16:43.519Z,99243.91
2019-03-10T00:19:10.951Z,99236.70
2019-03-10T00:21:39.276Z,99219.30
2019-03-10T00:24:08.609Z,99214.39
2019-03-10T00:26:36.180Z,99204.34
2019-03-10T00:29:03.643Z,99206.11
2019-03-10T00:31:31.105Z,99198.36
2019-03-10T00:33:58.595Z,99194.56
2019-03-10T00:36:26.092Z,99196.72
2019-03-10T00:39:23.289Z,99194.12
2019-03-10T00:41:56.272Z,99197.62
2019-03-10T00:44:44.543Z,99196.28
2019-03-10T00:47:37.106Z,99194.71
2019-03-10T00:50:38.106Z,99200.28
2019-03-10T00:53:05.562Z,99195.23
2019-03-10T00:55:32.997Z,99191.88
2019-03-10T00:58:01.431Z,99194.76
2019-03-10T01:00:28.873Z,99190.19
2019-03-10T01:02:56.342Z,99184.91
2019-03-10T01:05:23.774Z,99173.86
2019-03-10T01:07:51.234Z,99168.05
2019-03-10T01:10:19.686Z,99167.73
2019-03-10T01:12:47.207Z,99163.52
2019-03-10T01:15:15.598Z,99169.19
2019-03-10T01:17:43.031Z,99164.20
2019-03-10T01:20:10.490Z,99154.70
2019-03-10T01:22:38.862Z,99149.22
2019-03-10T01:25:08.273Z,99154.03
2019-03-10T01:27:35.709Z,99137.17
2019-03-10T01:30:03.185Z,99126.72
2019-03-10T01:32:34.266Z,99123.47
2019-03-10T01:35:04.362Z,99121.58
2019-03-10T01:37:31.799Z,99118.36
2019-03-10T01:39:59.234Z,99107.58
2019-03-10T01:42:26.729Z,99100.97
2019-03-10T01:44:54.984Z,99104.94
2019-03-10T01:47:22.508Z,99091.93
2019-03-10T01:49:49.952Z,99079.80
2019-03-10T01:52:17.404Z,99070.99
2019-03-10T01:54:44.929Z,99070.17
2019-03-10T01:57:12.359Z,99057.64
2019-03-10T01:59:39.832Z,99049.70
2019-03-10T02:02:07.269Z,99044.34
2019-03-10T02:04:34.714Z,99045.63
2019-03-10T02:07:02.267Z,99029.56
2019-03-10T02:09:29.741Z,99036.23
2019-03-10T02:11:57.181Z,99035.23
2019-03-10T02:14:24.671Z,99021.28
2019-03-10T02:16:52.091Z,99024.37
2019-03-10T02:19:19.529Z,99009.05
2019-03-10T02:21:47.032Z,99007.15
2019-03-10T02:24:23.466Z,98996.17
2019-03-10T02:26:41.948Z,98991.52
2019-03-10T02:29:09.405Z,98984.05
2019-03-10T02:31:37.550Z,98984.03
2019-03-10T02:34:04.985Z,98974.89
2019-03-10T02:36:32.439Z,98981.29
2019-03-10T02:38:59.875Z,98963.83
2019-03-10T02:41:27.352Z,98945.08
2019-03-10T02:43:54.801Z,98938.86
2019-03-10T02:46:22.267Z,98931.17
2019-03-10T02:48:52.689Z,98932.50
2019-03-10T02:51:20.189Z,98922.88
2019-03-10T02:53:47.644Z,98919.98
2019-03-10T02:56:15.089Z,98908.69
2019-03-10T02:58:42.543Z,98915.66
2019-03-10T03:01:10.002Z,98899.73
2019-03-10T03:03:37.461Z,98899.92
2019-03-10T03:06:04.920Z,98894.62
2019-03-10T03:08:32.377Z,98884.35
2019-03-10T03:10:59.825Z,98878.58
2019-03-10T03:13:27.373Z,98880.55
2019-03-10T03:15:54.773Z,98876.66
2019-03-10T03:18:22.233Z,98869.75
2019-03-10T03:20:49.655Z,98863.42
2019-03-10T03:23:17.107Z,98847.91
2019-03-10T03:25:44.577Z,98842.64
2019-03-10T03:28:12.020Z,98831.70
2019-03-10T03:30:39.571Z,98825.85
2019-03-10T03:33:06.932Z,98824.63
2019-03-10T03:35:56.857Z,98816.59
2019-03-10T03:38:35.514Z,98809.52
2019-03-10T03:41:08.837Z,98810.00
2019-03-10T03:43:36.282Z,98797.08
2019-03-10T03:46:03.735Z,98795.25
2019-03-10T03:48:32.215Z,98789.06
2019-03-10T03:50:59.695Z,98779.13
2019-03-10T03:53:27.164Z,98780.11
2019-03-10T03:55:54.628Z,98774.42
2019-03-10T03:58:22.110Z,98765.63
2019-03-10T04:00:49.561Z,98757.20
2019-03-10T04:03:17.538Z,98747.11
2019-03-10T04:05:44.975Z,98743.95
2019-03-10T04:08:12.416Z,98741.02
2019-03-10T04:10:39.876Z,98720.63
2019-03-10T04:13:07.337Z,98717.53
2019-03-10T04:15:34.782Z,98711.95
2019-03-10T04:18:02.342Z,98704.30
2019-03-10T04:20:29.793Z,98693.08
2019-03-10T04:22:57.256Z,98688.16
2019-03-10T04:25:25.219Z,98675.07
2019-03-10T04:27:52.748Z,98661.51
2019-03-10T04:30:20.192Z,98660.56
2019-03-10T04:32:47.649Z,98648.20
2019-03-10T04:35:15.079Z,98654.14
2019-03-10T04:37:42.521Z,98638.76
2019-03-10T04:40:09.987Z,98632.28
2019-03-10T04:42:37.432Z,98631.34
2019-03-10T04:45:04.856Z,98623.00
2019-03-10T04:47:32.550Z,98615.44
2019-03-10T04:49:59.970Z,98595.42
2019-03-10T04:52:27.426Z,98601.78
2019-03-10T04:55:00.360Z,98603.67
2019-03-10T04:57:28.556Z,98593.27
2019-03-10T04:59:55.992Z,98575.97
2019-03-10T05:02:24.126Z,98568.94
2019-03-10T05:04:51.582Z,98565.59
2019-03-10T05:07:19.017Z,98566.79
2019-03-10T05:09:46.477Z,98561.27
2019-03-10T05:12:14.715Z,98550.70
2019-03-10T05:14:42.222Z,98544.19
2019-03-10T05:17:09.674Z,98542.83
2019-03-10T05:19:37.112Z,98532.83
2019-03-10T05:22:04.539Z,98531.50
2019-03-10T05:24:32.619Z,98523.56
2019-03-10T05:27:00.059Z,98519.51
2019-03-10T05:29:27.473Z,98514.42
2019-03-10T05:31:54.932Z,98508.88
2019-03-10T05:34:22.396Z,98494.75
2019-03-10T05:36:49.845Z,98488.33
2019-03-10T05:39:17.266Z,98485.38
2019-03-10T05:41:44.718Z,98468.53
2019-03-10T05:44:12.177Z,98455.68
2019-03-10T05:46:39.668Z,98453.16
2019-03-10T05:49:07.120Z,98439.67
2019-03-10T05:51:34.557Z,98439.90
2019-03-10T05:54:02.796Z,98433.20
2019-03-10T05:56:30.237Z,98424.83
2019-03-10T05:58:57.752Z,98423.87
2019-03-10T06:01:25.179Z,98426.14
2019-03-10T06:03:52.615Z,98420.34
2019-03-10T06:06:20.101Z,98404.20
2019-03-10T06:08:47.574Z,98389.19
2019-03-10T06:11:15.052Z,98371.08
2019-03-10T06:13:42.541Z,98368.56
2019-03-10T06:16:10.009Z,98355.54
2019-03-10T06:18:37.520Z,98343.56
2019-03-10T06:21:04.995Z,98339.67
2019-03-10T06:23:32.991Z,98335.91
2019-03-10T06:26:00.455Z,98340.33
2019-03-10T06:28:27.907Z,98340.58
2019-03-10T06:30:56.419Z,98344.03
2019-03-10T06:33:22.796Z,98337.02
2019-03-10T06:35:50.256Z,98332.73
2019-03-10T06:38:17.725Z,98316.27
2019-03-10T06:40:45.159Z,98300.17
2019-03-10T06:43:12.580Z,98286.72
2019-03-10T06:45:40.032Z,98286.55
2019-03-10T06:48:07.496Z,98287.69
2019-03-10T06:50:35.010Z,98277.64
2019-03-10T06:53:03.130Z,98275.98
2019-03-10T06:55:30.607Z,98263.52
2019-03-10T06:57:58.051Z,98254.56
2019-03-10T07:00:25.523Z,98255.92
2019-03-10T07:02:52.992Z,98257.09
2019-03-10T07:05:20.467Z,98234.87
2019-03-10T07:07:47.906Z,98228.81
2019-03-10T07:10:15.342Z,98211.95
2019-03-10T07:12:42.798Z,98207.34
2019-03-10T07:15:12.075Z,98214.66
2019-03-10T07:17:39.543Z,98210.19
2019-03-10T07:20:08.480Z,98201.92
2019-03-10T07:22:35.894Z,98192.17
2019-03-10T07:25:03.365Z,98179.96
2019-03-10T07:27:30.806Z,98165.28
2019-03-10T07:29:58.254Z,98157.13
2019-03-10T07:32:40.577Z,98141.23
2019-03-10T07:35:08.899Z,98135.81
2019-03-10T07:37:51.233Z,98130.16
2019-03-10T07:40:24.128Z,98121.88
2019-03-10T07:42:52.340Z,98114.15
2019-03-10T07:45:38.616Z,98113.44
2019-03-10T07:48:06.090Z,98113.52
2019-03-10T07:50:35.913Z,98100.09
2019-03-10T07:53:08.961Z,98090.30
2019-03-10T07:55:52.239Z,98077.97
2019-03-10T07:58:23.171Z,98071.52
2019-03-10T08:01:06.283Z,98086.74
2019-03-10T08:03:38.005Z,98079.58
2019-03-10T08:06:11.322Z,98072.20
2019-03-10T08:08:43.654Z,98069.90
2019-03-10T08:11:14.803Z,98065.42
2019-03-10T08:13:58.951Z,98046.72
2019-03-10T08:16:31.347Z,98032.34
2019-03-10T08:19:02.886Z,98036.82
2019-03-10T08:21:36.106Z,98048.89
2019-03-10T08:24:09.345Z,98052.02
2019-03-10T08:26:39.741Z,98045.19
2019-03-10T08:29:24.872Z,98048.44
2019-03-10T08:31:57.869Z,98029.95
2019-03-10T08:34:43.498Z,98028.16
2019-03-10T08:37:14.785Z,98012.45
2019-03-10T08:39:47.205Z,98012.33
2019-03-10T08:42:20.942Z,98044.22
2019-03-10T08:44:48.220Z,98036.92
2019-03-10T08:47:17.935Z,98021.71
2019-03-10T08:49:45.676Z,98024.12
2019-03-10T08:52:12.856Z,98027.42
2019-03-10T08:54:43.141Z,97999.73
2019-03-10T08:57:14.024Z,97989.66
2019-03-10T08:59:45.317Z,97989.09
2019-03-10T09:02:28.560Z,97985.39
2019-03-10T09:04:56.080Z,97982.77
2019-03-10T09:07:23.514Z,97969.70
2019-03-10T09:09:52.754Z,97964.74
2019-03-10T09:12:20.205Z,97959.02
2019-03-10T09:14:51.119Z,97952.37
2019-03-10T09:17:22.480Z,97951.09
2019-03-10T09:20:01.679Z,97941.50
2019-03-10T09:22:29.132Z,97937.25
2019-03-10T09:24:57.523Z,97928.69
2019-03-10T09:27:24.940Z,97925.00
2019-03-10T09:29:58.058Z,97920.98
2019-03-10T09:32:31.311Z,97916.91
2019-03-10T09:34:59.539Z,97917.66
2019-03-10T09:37:29.508Z,97909.66
2019-03-10T09:40:03.059Z,97910.22
2019-03-10T09:42:31.353Z,97887.16
2019-03-10T09:45:16.626Z,97882.34
2019-03-10T09:47:44.330Z,97881.84
2019-03-10T09:50:26.712Z,97870.99
2019-03-10T09:52:59.582Z,97867.44
2019-03-10T09:55:27.949Z,97857.63
2019-03-10T09:58:01.448Z,97854.98
2019-03-10T10:00:43.882Z,97861.86
2019-03-10T10:03:26.358Z,97853.51
2019-03-10T10:06:08.728Z,97851.33
2019-03-10T10:08:36.668Z,97852.77
2019-03-10T10:11:06.639Z,97843.63
2019-03-10T10:13:54.865Z,97845.11
2019-03-10T10:16:23.813Z,97841.39
2019-03-10T10:18:54.266Z,97837.05
2019-03-10T10:21:38.393Z,97848.52
2019-03-10T10:24:05.845Z,97835.75
2019-03-10T10:26:46.734Z,97842.13
2019-03-10T10:29:19.749Z,97842.85
2019-03-10T10:31:50.635Z,97846.20
2019-03-10T10:34:33.954Z,97835.87
2019-03-10T10:37:22.125Z,97834.84
2019-03-10T10:40:10.241Z,97840.19
2019-03-10T10:42:43.323Z,97846.11
2019-03-10T10:45:27.359Z,97836.52
2019-03-10T10:47:59.958Z,97830.20
2019-03-10T10:50:42.331Z,97837.85
2019-03-10T10:53:15.567Z,97821.67
2019-03-10T10:55:53.680Z,97807.19
2019-03-10T10:58:26.760Z,97804.16
2019-03-10T11:00:56.024Z,97800.58
2019-03-10T11:03:38.354Z,97826.30
2019-03-10T11:06:06.259Z,97801.51
2019-03-10T11:08:36.943Z,97798.45
2019-03-10T11:11:24.200Z,97790.72
2019-03-10T11:13:57.221Z,97790.98
2019-03-10T11:16:27.787Z,97773.22
2019-03-10T11:18:57.822Z,97775.28
2019-03-10T11:21:31.095Z,97774.02
2019-03-10T11:23:58.941Z,97754.51
2019-03-10T11:26:27.325Z,97753.74
2019-03-10T11:29:09.702Z,97767.03
2019-03-10T11:31:37.979Z,97781.01
2019-03-10T11:34:06.460Z,97794.97
2019-03-10T11:36:34.693Z,97769.88
2019-03-10T11:39:04.330Z,97774.45
2019-03-10T11:41:38.936Z,97785.14
2019-03-10T11:44:11.937Z,97772.45
2019-03-10T11:46:39.498Z,97754.84
2019-03-10T11:49:09.313Z,97760.17
2019-03-10T11:51:50.631Z,97757.09
2019-03-10T11:54:33.016Z,97755.30
2019-03-10T11:57:06.151Z,97747.83
2019-03-10T11:59:52.334Z,97746.91
2019-03-10T12:02:22.673Z,97760.47
2019-03-10T12:04:51.606Z,97756.41
2019-03-10T12:07:20.532Z,97746.09
2019-03-10T12:09:48.013Z,97757.40
2019-03-10T12:12:15.470Z,97739.05
2019-03-10T12:14:42.965Z,97746.70
2019-03-10T12:17:10.434Z,97741.98
2019-03-10T12:19:38.542Z,97703.86
2019-03-10T12:22:06.868Z,97717.54
2019-03-10T12:24:34.558Z,97741.54
2019-03-10T12:27:01.997Z,97736.24
2019-03-10T12:29:29.452Z,97732.50
2019-03-10T12:31:56.964Z,97744.30
2019-03-10T12:34:24.414Z,97730.93
2019-03-10T12:36:51.982Z,97750.20
2019-03-10T12:39:19.417Z,97763.39
2019-03-10T12:41:57.518Z,97768.56
2019-03-10T12:44:14.342Z,97757.11
2019-03-10T12:46:42.607Z,97740.41
2019-03-10T12:49:10.102Z,97748.77
2019-03-10T12:51:37.564Z,97751.36
2019-03-10T12:54:05.030Z,97762.34
2019-03-10T12:56:32.750Z,97761.05
2019-03-10T12:59:00.216Z,97767.51
2019-03-10T13:01:28.650Z,97782.13
2019-03-10T13:03:59.144Z,97779.42
2019-03-10T13:06:24.144Z,97786.31
2019-03-10T13:08:51.604Z,97788.16
2019-03-10T13:11:19.316Z,97770.12
2019-03-10T13:13:46.766Z,97784.92
2019-03-10T13:16:15.058Z,97769.83
2019-03-10T13:18:42.646Z,97790.33
2019-03-10T13:21:11.240Z,97776.09
2019-03-10T13:23:38.935Z,97774.98
2019-03-10T13:26:06.394Z,97784.91
2019-03-10T13:28:34.743Z,97779.61
2019-03-10T13:31:02.808Z,97777.44
2019-03-10T13:33:30.301Z,97820.04
2019-03-10T13:35:57.787Z,97757.89
2019-03-10T13:38:25.239Z,97777.50
2019-03-10T13:40:53.085Z,97769.88
2019-03-10T13:43:20.586Z,97769.20
2019-03-10T13:45:48.836Z,97768.23
2019-03-10T13:48:16.342Z,97778.14
2019-03-10T13:50:44.862Z,97772.55
2019-03-10T13:53:13.052Z,97790.22
2019-03-10T13:55:40.520Z,97800.17
2019-03-10T13:58:08.000Z,97803.58
2019-03-10T14:00:35.512Z,97859.03
2019-03-10T14:03:04.178Z,97856.13
2019-03-10T14:05:31.616Z,97845.91
2019-03-10T14:07:59.094Z,97919.14
2019-03-10T14:10:26.521Z,97827.84
2019-03-10T14:12:53.971Z,97877.86
2019-03-10T14:15:21.422Z,97858.52
2019-03-10T14:17:48.911Z,97879.06
2019-03-10T14:20:16.336Z,97896.95
2019-03-10T14:22:43.821Z,97910.87
2019-03-10T14:25:11.312Z,97884.23
2019-03-10T14:27:40.145Z,97935.53
2019-03-10T14:30:20.335Z,97933.95
2019-03-10T14:32:48.688Z,97942.22
2019-03-10T14:35:16.262Z,97969.33
2019-03-10T14:37:43.802Z,97952.16
2019-03-10T14:40:12.017Z,97997.45
2019-03-10T14:42:39.758Z,97996.34
2019-03-10T14:45:10.172Z,97963.23
2019-03-10T14:47:37.634Z,98029.23
2019-03-10T14:50:05.091Z,98073.52
2019-03-10T14:52:32.949Z,98047.63
2019-03-10T14:55:00.533Z,98033.83
2019-03-10T14:57:28.230Z,98107.38
2019-03-10T14:59:55.710Z,98063.15
2019-03-10T15:02:23.442Z,98091.86
2019-03-10T15:04:51.034Z,98082.70
2019-03-10T15:07:18.546Z,98101.59
2019-03-10T15:09:46.237Z,98087.20
2019-03-10T15:12:13.855Z,98120.94
2019-03-10T15:14:41.546Z,98094.70
2019-03-10T15:17:09.212Z,98113.08
2019-03-10T15:19:36.752Z,98143.38
2019-03-10T15:22:05.031Z,98154.22
2019-03-10T15:24:32.811Z,98160.34
2019-03-10T15:27:00.565Z,98176.91
2019-03-10T15:29:27.988Z,98172.59
2019-03-10T15:31:55.478Z,98179.19
2019-03-10T15:34:22.953Z,98199.91
2019-03-10T15:36:50.400Z,98184.72
2019-03-10T15:39:19.680Z,98208.17
2019-03-10T15:41:47.263Z,98201.86
2019-03-10T15:44:14.775Z,98193.77
2019-03-10T15:46:43.234Z,98186.34
2019-03-10T15:49:10.857Z,98237.64
2019-03-10T15:51:38.419Z,98248.64
2019-03-10T15:54:06.127Z,98246.84
2019-03-10T15:56:33.538Z,98266.37
2019-03-10T15:59:00.996Z,98310.87
2019-03-10T16:01:28.470Z,98292.29
2019-03-10T16:03:55.943Z,98303.09
2019-03-10T16:06:23.448Z,98290.16
2019-03-10T16:08:50.934Z,98296.05
2019-03-10T16:11:18.413Z,98354.73
2019-03-10T16:13:45.921Z,98331.45
2019-03-10T16:16:13.377Z,98362.27
2019-03-10T16:18:40.850Z,98382.39
2019-03-10T16:21:08.311Z,98393.44
2019-03-10T16:23:35.811Z,98403.65
2019-03-10T16:26:03.434Z,98414.61
2019-03-10T16:28:31.782Z,98439.42
2019-03-10T16:30:59.283Z,98466.45
2019-03-10T16:33:26.764Z,98484.94
2019-03-10T16:35:54.258Z,98499.05
2019-03-10T16:38:21.725Z,98522.86
2019-03-10T16:40:49.172Z,98530.77
2019-03-10T16:43:16.626Z,98562.73
2019-03-10T16:45:44.070Z,98563.77
2019-03-10T16:48:11.575Z,98573.78
2019-03-10T16:50:39.061Z,98589.44
2019-03-10T16:53:06.480Z,98594.69
2019-03-10T16:55:33.922Z,98617.50
2019-03-10T16:58:01.381Z,98625.50
2019-03-10T17:00:28.839Z,98634.88
2019-03-10T17:02:56.332Z,98666.36
2019-03-10T17:05:23.792Z,98670.05
2019-03-10T17:07:51.254Z,98682.41
2019-03-10T17:10:21.559Z,98690.44
2019-03-10T17:12:49.051Z,98709.83
2019-03-10T17:15:18.008Z,98705.77
2019-03-10T17:17:45.503Z,98755.83
2019-03-10T17:20:15.632Z,98737.05
2019-03-10T17:22:43.186Z,98730.02
2019-03-10T17:25:10.657Z,98741.59
2019-03-10T17:27:38.575Z,98749.73
2019-03-10T17:30:08.922Z,98761.94
2019-03-10T17:32:37.265Z,98767.84
2019-03-10T17:35:04.036Z,98772.45
2019-03-10T17:37:31.502Z,98775.64
2019-03-10T17:39:58.983Z,98784.35
2019-03-10T17:42:27.342Z,98805.30
2019-03-10T17:44:54.862Z,98795.48
2019-03-10T17:47:26.526Z,98791.45
2019-03-10T17:49:49.901Z,98818.36
2019-03-10T17:52:17.439Z,98816.12
2019-03-10T17:54:45.731Z,98809.08
2019-03-10T17:57:13.350Z,98829.48
2019-03-10T17:59:40.772Z,98834.89
2019-03-10T18:02:09.166Z,98833.20
2019-03-10T18:04:35.725Z,98856.48
2019-03-10T18:07:03.351Z,98849.63
2019-03-10T18:09:30.778Z,98852.16
2019-03-10T18:11:58.221Z,98852.99
2019-03-10T18:14:25.657Z,98856.78
2019-03-10T18:16:55.407Z,98845.27
2019-03-10T18:19:22.976Z,98848.37
2019-03-10T18:21:50.454Z,98841.55
2019-03-10T18:24:17.961Z,98854.28
2019-03-10T18:26:45.412Z,98873.06
2019-03-10T18:29:12.891Z,98864.16
2019-03-10T18:31:40.362Z,98871.38
2019-03-10T18:34:09.090Z,98879.59
2019-03-10T18:36:35.630Z,98871.38
2019-03-10T18:39:03.205Z,98867.59
2019-03-10T18:41:30.763Z,98894.54
2019-03-10T18:43:58.254Z,98890.80
2019-03-10T18:46:25.727Z,98908.29
2019-03-10T18:48:53.172Z,98908.35
2019-03-10T18:51:20.657Z,98948.63
2019-03-10T18:53:48.142Z,98942.45
2019-03-10T18:56:15.603Z,98922.39
2019-03-10T18:58:43.076Z,98941.77
2019-03-10T19:01:10.556Z,98941.88
2019-03-10T19:03:55.631Z,98930.58
2019-03-10T19:06:23.168Z,98963.25
2019-03-10T19:08:50.674Z,98972.86
2019-03-10T19:11:18.215Z,98997.73
2019-03-10T19:13:45.668Z,99011.73
2019-03-10T19:16:14.275Z,99004.48
2019-03-10T19:18:41.784Z,99023.56
2019-03-10T19:21:09.285Z,99030.03
2019-03-10T19:23:36.724Z,99032.09
2019-03-10T19:26:04.994Z,99043.95
2019-03-10T19:28:32.462Z,99047.80
2019-03-10T19:30:59.991Z,99072.03
2019-03-10T19:33:27.461Z,99072.59
2019-03-10T19:35:54.994Z,99069.45
2019-03-10T19:38:22.434Z,99092.25
2019-03-10T19:40:50.215Z,99089.55
2019-03-10T19:43:17.647Z,99099.13
2019-03-10T19:45:45.132Z,99099.02
2019-03-10T19:48:12.601Z,99104.61
2019-03-10T19:50:40.837Z,99099.80
2019-03-10T19:53:08.390Z,99118.72
2019-03-10T19:55:36.841Z,99126.55
2019-03-10T19:58:04.301Z,99110.43
2019-03-10T20:00:31.762Z,99111.96
2019-03-10T20:03:00.078Z,99119.81
2019-03-10T20:05:27.586Z,99119.76
2019-03-10T20:07:55.046Z,99113.14
2019-03-10T20:10:22.889Z,99107.52
2019-03-10T20:12:50.587Z,99104.41
2019-03-10T20:15:18.155Z,99103.36
2019-03-10T20:17:45.635Z,99109.78
2019-03-10T20:20:13.946Z,99112.04
2019-03-10T20:22:41.493Z,99115.36
2019-03-10T20:25:09.871Z,99120.50
2019-03-10T20:27:37.396Z,99146.73
2019-03-10T20:30:05.781Z,99157.67
2019-03-10T20:32:33.304Z,99184.24
2019-03-10T20:35:00.776Z,99187.73
2019-03-10T20:37:29.650Z,99208.16
2019-03-10T20:39:57.278Z,99173.91
2019-03-10T20:42:24.729Z,99153.23
2019-03-10T20:44:52.292Z,99146.67
2019-03-10T20:47:19.837Z,99150.59
2019-03-10T20:49:47.326Z,99146.86
2019-03-10T20:52:14.806Z,99150.59
2019-03-10T20:54:42.255Z,99156.59
2019-03-10T20:57:09.700Z,99143.58
2019-03-10T20:59:38.235Z,99156.67
2019-03-10T21:02:05.728Z,99152.30
2019-03-10T21:04:33.200Z,99163.11
2019-03-10T21:07:00.643Z,99180.34
2019-03-10T21:09:28.134Z,99181.08
2019-03-10T21:11:55.601Z,99170.44
2019-03-10T21:14:23.140Z,99180.92
2019-03-10T21:16:50.560Z,99175.92
2019-03-10T21:19:18.050Z,99176.35
2019-03-10T21:21:45.508Z,99186.63
2019-03-10T21:24:12.967Z,99194.53
2019-03-10T21:26:40.439Z,99187.31
2019-03-10T21:29:08.580Z,99188.82
2019-03-10T21:31:36.140Z,99194.59
2019-03-10T21:34:03.882Z,99192.53
2019-03-10T21:36:31.350Z,99194.41
2019-03-10T21:38:58.782Z,99192.75
2019-03-10T21:41:26.230Z,99192.30
2019-03-10T21:43:53.811Z,99202.16
2019-03-10T21:46:21.177Z,99201.92
2019-03-10T21:48:48.676Z,99194.02
2019-03-10T21:51:16.131Z,99191.02
2019-03-10T21:53:43.609Z,99201.36
2019-03-10T21:56:11.025Z,99205.20
2019-03-10T21:58:39.136Z,99200.84
2019-03-10T22:01:07.582Z,99203.31
2019-03-10T22:03:35.136Z,99203.70
2019-03-10T22:06:02.581Z,99214.94
2019-03-10T22:08:30.056Z,99208.81
2019-03-10T22:10:57.541Z,99203.63
2019-03-10T22:13:25.014Z,99205.16
2019-03-10T22:15:52.674Z,99200.56
2019-03-10T22:18:20.191Z,99195.80
2019-03-10T22:20:47.707Z,99202.45
2019-03-10T22:23:15.146Z,99193.25
2019-03-10T22:25:42.617Z,99202.53
2019-03-10T22:28:10.855Z,99203.80
2019-03-10T22:30:38.399Z,99201.11
2019-03-10T22:33:05.827Z,99215.97
2019-03-10T22:35:33.484Z,99212.81
2019-03-10T22:38:00.938Z,99208.93
2019-03-10T22:40:30.099Z,99205.32
2019-03-10T22:42:58.404Z,99208.48
2019-03-10T22:45:25.858Z,99209.84
2019-03-10T22:47:53.323Z,99208.70
2019-03-10T22:50:23.725Z,99205.84
2019-03-10T22:52:51.199Z,99212.30
2019-03-10T22:55:18.651Z,99204.52
2019-03-10T22:57:46.229Z,99201.34
2019-03-10T23:00:15.211Z,99195.06
2019-03-10T23:02:42.726Z,99199.78
2019-03-10T23:05:10.541Z,99192.84
2019-03-10T23:07:38.032Z,99200.39
2019-03-10T23:10:05.520Z,99185.11
2019-03-10T23:12:32.949Z,99186.56
2019-03-10T23:15:00.435Z,99177.50
2019-03-10T23:17:27.857Z,99170.25
2019-03-10T23:19:55.346Z,99167.18
2019-03-10T23:22:22.803Z,99162.61
2019-03-10T23:24:50.376Z,99161.86
2019-03-10T23:27:17.876Z,99155.03
2019-03-10T23:29:45.371Z,99179.86
2019-03-10T23:32:13.208Z,99181.88
2019-03-10T23:34:41.168Z,99168.48
2019-03-10T23:37:08.636Z,99172.44
2019-03-10T23:39:36.182Z,99169.81
2019-03-10T23:42:03.664Z,99173.62
2019-03-10T23:44:31.127Z,99170.08
2019-03-10T23:46:58.819Z,99171.73
2019-03-10T23:49:26.339Z,99168.42
2019-03-10T23:51:54.749Z,99157.82
2019-03-10T23:54:22.245Z,99153.33
2019-03-10T23:56:49.674Z,99156.98
2019-03-10T23:59:17.163Z,99155.70
